^^
Saratoga-Weather Station Historical Data
Daily Summary for May 25, 2021 Units:  Metric    English   Both
Daily Weekly Monthly Yearly Custom
  High: Low: Average:
Temperature: 23.9 °C 12.2 °C 17.6 °C
Dew Point: 13.9 °C 10.1 °C 11.9 °C
Humidity: 88% 49% 71%
Wind Speed: 13km/h 0km/h 2.3km/h
Wind Gust: 17.7km/h - -
Wind- - South
Pressure: 1023.0 hPa 1016.3 hPa -
Precipitation: 0.0 mm    
Historical Graphs
 
 
Tabular Data for May 25, 2021
Time Temperature Dew Point Pressure Wind Wind Speed Wind Gust Humidity Rainfall Rate (Hourly) solar
00:04 15.1 °C 12.4 °C 1023.0 hPa Calm   1.6 km/h 84% 0.0 mm 0 W/m2
00:09 15 °C 12.3 °C 1022.7 hPa Calm   3.2 km/h 84% 0.0 mm 0 W/m2
00:14 14.9 °C 12.4 °C 1023.0 hPa West 1.4 km/h 3.2 km/h 85% 0.0 mm 0 W/m2
00:19 14.8 °C 12.3 °C 1022.7 hPa West 1.4 km/h 3.2 km/h 85% 0.0 mm 0 W/m2
00:24 14.8 °C 12.3 °C 1023.0 hPa WNW 1.4 km/h 3.2 km/h 85% 0.0 mm 0 W/m2
00:29 14.8 °C 12.3 °C 1023.0 hPa WSW 1.4 km/h 3.2 km/h 85% 0.0 mm 0 W/m2
00:34 14.8 °C 12.3 °C 1022.7 hPa NW 1.4 km/h 4.8 km/h 85% 0.0 mm 0 W/m2
00:39 14.8 °C 12.3 °C 1022.7 hPa SW 1.4 km/h 3.2 km/h 85% 0.0 mm 0 W/m2
00:44 14.7 °C 12.4 °C 1022.7 hPa West 3.2 km/h 3.2 km/h 86% 0.0 mm 0 W/m2
00:49 14.6 °C 12.3 °C 1022.7 hPa Calm   3.2 km/h 86% 0.0 mm 0 W/m2
00:54 14.5 °C 12.2 °C 1022.7 hPa West 3.2 km/h 3.2 km/h 86% 0.0 mm 0 W/m2
00:59 14.4 °C 12.3 °C 1022.7 hPa West 3.2 km/h 4.8 km/h 87% 0.0 mm 0 W/m2
01:04 14.4 °C 12.3 °C 1022.7 hPa WNW 3.2 km/h 4.8 km/h 87% 0.0 mm 0 W/m2
01:09 14.4 °C 12.3 °C 1022.7 hPa WSW 6.4 km/h 8 km/h 87% 0.0 mm 0 W/m2
01:14 14.3 °C 12.2 °C 1022.7 hPa Calm   6.4 km/h 87% 0.0 mm 0 W/m2
01:19 14.3 °C 12.2 °C 1022.4 hPa WNW 8 km/h 8 km/h 87% 0.0 mm 0 W/m2
01:24 14.3 °C 12.2 °C 1022.7 hPa West 1.4 km/h 6.4 km/h 87% 0.0 mm 0 W/m2
01:29 14.3 °C 12.2 °C 1022.7 hPa West 4.7 km/h 6.4 km/h 87% 0.0 mm 0 W/m2
01:34 14.3 °C 12.2 °C 1022.7 hPa West 1.4 km/h 1.6 km/h 87% 0.0 mm 0 W/m2
01:39 14.2 °C 12.1 °C 1022.4 hPa West 1.4 km/h 3.2 km/h 87% 0.0 mm 0 W/m2
01:44 14.1 °C 12 °C 1022.4 hPa West 1.4 km/h 3.2 km/h 87% 0.0 mm 0 W/m2
01:49 14 °C 11.9 °C 1022.4 hPa Calm   1.6 km/h 87% 0.0 mm 0 W/m2
01:54 13.9 °C 11.8 °C 1022.4 hPa Calm   4.8 km/h 87% 0.0 mm 0 W/m2
01:59 13.9 °C 11.9 °C 1022.4 hPa WNW 3.2 km/h 4.8 km/h 88% 0.0 mm 0 W/m2
02:04 13.9 °C 11.8 °C 1022.4 hPa WNW 1.4 km/h 3.2 km/h 87% 0.0 mm 0 W/m2
02:09 13.9 °C 11.8 °C 1022.4 hPa Calm   3.2 km/h 87% 0.0 mm 0 W/m2
02:14 13.9 °C 11.8 °C 1022.4 hPa NW 3.2 km/h 3.2 km/h 87% 0.0 mm 0 W/m2
02:19 13.9 °C 11.6 °C 1022.4 hPa Calm     86% 0.0 mm 0 W/m2
02:24 13.8 °C 11.5 °C 1022.4 hPa Calm   3.2 km/h 86% 0.0 mm 0 W/m2
02:29 13.7 °C 11.6 °C 1022.0 hPa Calm   1.6 km/h 87% 0.0 mm 0 W/m2
02:34 13.6 °C 11.5 °C 1022.0 hPa NW 1.4 km/h 3.2 km/h 87% 0.0 mm 0 W/m2
02:39 13.4 °C 11.3 °C 1022.0 hPa Calm   1.6 km/h 87% 0.0 mm 0 W/m2
02:44 13.4 °C 11.3 °C 1022.0 hPa SW 3.2 km/h 3.2 km/h 87% 0.0 mm 0 W/m2
02:49 13.3 °C 11.2 °C 1022.0 hPa SE 1.4 km/h 4.8 km/h 87% 0.0 mm 0 W/m2
02:54 13.4 °C 11.3 °C 1022.0 hPa Calm   3.2 km/h 87% 0.0 mm 0 W/m2
02:59 13.5 °C 11.2 °C 1022.0 hPa SSE 1.4 km/h 3.2 km/h 86% 0.0 mm 0 W/m2
03:04 13.6 °C 11.3 °C 1022.0 hPa Calm   4.8 km/h 86% 0.0 mm 0 W/m2
03:09 13.7 °C 11.2 °C 1022.0 hPa NE 3.2 km/h 4.8 km/h 85% 0.0 mm 0 W/m2
03:14 13.7 °C 11.2 °C 1021.7 hPa ESE 1.4 km/h 3.2 km/h 85% 0.0 mm 0 W/m2
03:19 13.8 °C 11.1 °C 1022.0 hPa NW 1.4 km/h 6.4 km/h 84% 0.0 mm 0 W/m2
03:24 13.7 °C 11 °C 1022.0 hPa SSW 1.4 km/h 3.2 km/h 84% 0.0 mm 0 W/m2
03:29 13.7 °C 11 °C 1022.0 hPa ESE 1.4 km/h 6.4 km/h 84% 0.0 mm 0 W/m2
03:34 13.7 °C 11 °C 1021.7 hPa Calm   1.6 km/h 84% 0.0 mm 0 W/m2
03:39 13.6 °C 10.9 °C 1021.7 hPa WNW 3.2 km/h 4.8 km/h 84% 0.0 mm 0 W/m2
03:44 13.6 °C 10.9 °C 1021.7 hPa WNW 1.4 km/h 4.8 km/h 84% 0.0 mm 0 W/m2
03:49 13.4 °C 10.8 °C 1021.7 hPa WNW 1.4 km/h 1.6 km/h 84% 0.0 mm 0 W/m2
03:54 13.3 °C 10.8 °C 1021.7 hPa WSW 1.4 km/h 4.8 km/h 85% 0.0 mm 0 W/m2
03:59 13.3 °C 10.8 °C 1021.7 hPa WSW 1.4 km/h 3.2 km/h 85% 0.0 mm 0 W/m2
04:04 13.1 °C 10.6 °C 1021.7 hPa WNW 1.4 km/h 3.2 km/h 85% 0.0 mm 0 W/m2
04:09 13.1 °C 10.6 °C 1021.7 hPa WNW 3.2 km/h 4.8 km/h 85% 0.0 mm 0 W/m2
04:14 13 °C 10.7 °C 1021.3 hPa Calm   3.2 km/h 86% 0.0 mm 0 W/m2
04:19 12.9 °C 10.6 °C 1021.3 hPa Calm   4.8 km/h 86% 0.0 mm 0 W/m2
04:24 12.8 °C 10.5 °C 1021.3 hPa WSW 1.4 km/h 3.2 km/h 86% 0.0 mm 0 W/m2
04:29 12.7 °C 10.4 °C 1021.3 hPa Calm   1.6 km/h 86% 0.0 mm 0 W/m2
04:34 12.7 °C 10.6 °C 1021.3 hPa Calm   3.2 km/h 87% 0.0 mm 0 W/m2
04:39 12.7 °C 10.6 °C 1021.3 hPa Calm   1.6 km/h 87% 0.0 mm 0 W/m2
04:44 12.6 °C 10.5 °C 1021.3 hPa Calm     87% 0.0 mm 0 W/m2
04:49 12.5 °C 10.4 °C 1021.3 hPa Calm   1.6 km/h 87% 0.0 mm 0 W/m2
04:54 12.4 °C 10.3 °C 1021.3 hPa Calm   3.2 km/h 87% 0.0 mm 0 W/m2
04:59 12.3 °C 10.4 °C 1021.3 hPa NNE 1.4 km/h 8 km/h 88% 0.0 mm 0 W/m2
05:04 12.3 °C 10.2 °C 1021.3 hPa WNW 1.4 km/h 3.2 km/h 87% 0.0 mm 0 W/m2
05:09 12.4 °C 10.3 °C 1021.3 hPa Calm   8 km/h 87% 0.0 mm 0 W/m2
05:14 12.3 °C 10.2 °C 1021.3 hPa WSW 1.4 km/h 3.2 km/h 87% 0.0 mm 0 W/m2
05:19 12.3 °C 10.2 °C 1021.3 hPa Calm   1.6 km/h 87% 0.0 mm 0 W/m2
05:24 12.2 °C 10.3 °C 1021.3 hPa West 1.4 km/h 4.8 km/h 88% 0.0 mm 0 W/m2
05:29 12.2 °C 10.3 °C 1021.3 hPa West 1.4 km/h 3.2 km/h 88% 0.0 mm 0 W/m2
05:34 12.2 °C 10.3 °C 1021.3 hPa West 4.7 km/h 4.8 km/h 88% 0.0 mm 0 W/m2
05:39 12.2 °C 10.3 °C 1021.3 hPa Calm   4.8 km/h 88% 0.0 mm 0 W/m2
05:44 12.2 °C 10.3 °C 1021.0 hPa West 1.4 km/h 3.2 km/h 88% 0.0 mm 0 W/m2
05:49 12.2 °C 10.3 °C 1021.3 hPa Calm   6.4 km/h 88% 0.0 mm 0 W/m2
05:54 12.2 °C 10.3 °C 1021.3 hPa SSW 1.4 km/h 3.2 km/h 88% 0.0 mm 0 W/m2
05:59 12.2 °C 10.3 °C 1021.0 hPa ESE 1.4 km/h 3.2 km/h 88% 0.0 mm 0 W/m2
06:04 12.2 °C 10.3 °C 1021.0 hPa North 1.4 km/h 3.2 km/h 88% 0.0 mm 0 W/m2
06:09 12.3 °C 10.2 °C 1021.0 hPa West 1.4 km/h 3.2 km/h 87% 0.0 mm 0 W/m2
06:14 12.3 °C 10.2 °C 1021.0 hPa Calm   3.2 km/h 87% 0.0 mm 0 W/m2
06:19 12.2 °C 10.1 °C 1021.0 hPa West 3.2 km/h 6.4 km/h 87% 0.0 mm 0 W/m2
06:24 12.3 °C 10.2 °C 1021.0 hPa WNW 1.4 km/h 3.2 km/h 87% 0.0 mm 0 W/m2
06:29 12.3 °C 10.2 °C 1021.0 hPa WNW 3.2 km/h 3.2 km/h 87% 0.0 mm 0 W/m2
06:34 12.4 °C 10.3 °C 1021.0 hPa WSW 1.4 km/h 4.8 km/h 87% 0.0 mm 0 W/m2
06:39 12.4 °C 10.1 °C 1021.0 hPa NNW 1.4 km/h 3.2 km/h 86% 0.0 mm 0 W/m2
06:44 12.4 °C 10.1 °C 1021.0 hPa WSW 1.4 km/h 1.6 km/h 86% 0.0 mm 5 W/m2
06:50 12.3 °C 10.2 °C 1021.0 hPa WSW 1.4 km/h 3.2 km/h 87% 0.0 mm 9 W/m2
06:55 12.3 °C 10.2 °C 1021.0 hPa WSW 3.2 km/h 3.2 km/h 87% 0.0 mm 11 W/m2
07:00 12.3 °C 10.2 °C 1021.0 hPa Calm   1.6 km/h 87% 0.0 mm 12 W/m2
07:05 12.2 °C 10.1 °C 1021.0 hPa WNW 1.4 km/h 3.2 km/h 87% 0.0 mm 16 W/m2
07:10 12.3 °C 10.2 °C 1021.0 hPa NNW 1.4 km/h 3.2 km/h 87% 0.0 mm 19 W/m2
07:15 12.4 °C 10.3 °C 1021.0 hPa West 3.2 km/h 8 km/h 87% 0.0 mm 21 W/m2
07:20 12.4 °C 10.1 °C 1021.0 hPa West 3.2 km/h 3.2 km/h 86% 0.0 mm 25 W/m2
07:25 12.5 °C 10.2 °C 1021.0 hPa WNW 3.2 km/h 8 km/h 86% 0.0 mm 26 W/m2
07:30 12.5 °C 10.2 °C 1021.3 hPa Calm     86% 0.0 mm 28 W/m2
07:35 12.6 °C 10.3 °C 1021.3 hPa West 1.4 km/h 4.8 km/h 86% 0.0 mm 30 W/m2
07:40 12.6 °C 10.3 °C 1021.3 hPa NNW 1.4 km/h 3.2 km/h 86% 0.0 mm 33 W/m2
07:45 12.6 °C 10.3 °C 1021.3 hPa Calm     86% 0.0 mm 35 W/m2
07:50 12.7 °C 10.4 °C 1021.3 hPa Calm   4.8 km/h 86% 0.0 mm 37 W/m2
07:55 12.7 °C 10.4 °C 1021.3 hPa WNW 3.2 km/h 4.8 km/h 86% 0.0 mm 39 W/m2
08:00 12.8 °C 10.5 °C 1021.3 hPa WNW 1.4 km/h 3.2 km/h 86% 0.0 mm 42 W/m2
08:05 12.9 °C 10.6 °C 1021.3 hPa WNW 1.4 km/h 3.2 km/h 86% 0.0 mm 44 W/m2
08:10 13 °C 10.5 °C 1021.3 hPa NW 1.4 km/h 3.2 km/h 85% 0.0 mm 46 W/m2
08:15 13.2 °C 10.7 °C 1021.3 hPa NW 1.4 km/h 3.2 km/h 85% 0.0 mm 47 W/m2
08:20 13.3 °C 10.8 °C 1021.3 hPa NNE 1.4 km/h 4.8 km/h 85% 0.0 mm 49 W/m2
08:25 13.5 °C 10.8 °C 1021.3 hPa Calm   3.2 km/h 84% 0.0 mm 84 W/m2
08:30 13.7 °C 11 °C 1021.3 hPa NE 1.4 km/h 6.4 km/h 84% 0.0 mm 151 W/m2
08:35 13.9 °C 11.1 °C 1021.0 hPa Calm   3.2 km/h 83% 0.0 mm 214 W/m2
08:40 14.1 °C 11.3 °C 1021.0 hPa ESE 3.2 km/h 6.4 km/h 83% 0.0 mm 232 W/m2
08:45 14.3 °C 11.3 °C 1021.0 hPa WNW 1.4 km/h 3.2 km/h 82% 0.0 mm 229 W/m2
08:50 14.4 °C 11.4 °C 1021.0 hPa East 4.7 km/h 8 km/h 82% 0.0 mm 214 W/m2
08:55 14.6 °C 11.6 °C 1021.0 hPa ENE 1.4 km/h 4.8 km/h 82% 0.0 mm 243 W/m2
09:00 14.7 °C 11.5 °C 1021.0 hPa NW 3.2 km/h 6.4 km/h 81% 0.0 mm 258 W/m2
09:05 14.8 °C 11.6 °C 1021.0 hPa NNE 1.4 km/h 6.4 km/h 81% 0.0 mm 278 W/m2
09:10 14.9 °C 11.7 °C 1021.3 hPa ENE 3.2 km/h 6.4 km/h 81% 0.0 mm 267 W/m2
09:15 15 °C 11.8 °C 1021.3 hPa NE 3.2 km/h 6.4 km/h 81% 0.0 mm 271 W/m2
09:20 15.1 °C 11.9 °C 1021.3 hPa Calm   6.4 km/h 81% 0.0 mm 135 W/m2
09:25 15.3 °C 12.1 °C 1021.3 hPa NE 3.2 km/h 6.4 km/h 81% 0.0 mm 102 W/m2
09:30 15.4 °C 12.2 °C 1021.0 hPa NE 1.4 km/h 3.2 km/h 81% 0.0 mm 301 W/m2
09:35 15.7 °C 12.3 °C 1021.0 hPa NE 1.4 km/h 3.2 km/h 80% 0.0 mm 341 W/m2
09:40 15.9 °C 12.3 °C 1021.0 hPa NNW 6.4 km/h 11.3 km/h 79% 0.0 mm 339 W/m2
09:45 16.2 °C 12.6 °C 1021.0 hPa NW 3.2 km/h 12.9 km/h 79% 0.0 mm 381 W/m2
09:50 16.4 °C 12.6 °C 1021.0 hPa East 4.7 km/h 4.8 km/h 78% 0.0 mm 388 W/m2
09:55 16.6 °C 12.6 °C 1021.0 hPa NE 1.4 km/h 9.7 km/h 77% 0.0 mm 424 W/m2
10:00 16.7 °C 12.6 °C 1021.0 hPa NNE 1.4 km/h 6.4 km/h 77% 0.0 mm 443 W/m2
10:05 16.9 °C 12.6 °C 1021.0 hPa NW 3.2 km/h 8 km/h 76% 0.0 mm 445 W/m2
10:10 17.1 °C 13 °C 1021.0 hPa NNE 1.4 km/h 4.8 km/h 77% 0.0 mm 462 W/m2
10:15 17.3 °C 12.8 °C 1021.0 hPa NE 6.4 km/h 8 km/h 75% 0.0 mm 480 W/m2
10:20 17.5 °C 13 °C 1021.0 hPa ENE 4.7 km/h 12.9 km/h 75% 0.0 mm 499 W/m2
10:25 17.7 °C 13.2 °C 1021.0 hPa ENE 3.2 km/h 6.4 km/h 75% 0.0 mm 492 W/m2
10:30 18.1 °C 13.6 °C 1021.0 hPa ESE 1.4 km/h 12.9 km/h 75% 0.0 mm 524 W/m2
10:35 18.3 °C 13.6 °C 1021.0 hPa East 1.4 km/h 4.8 km/h 74% 0.0 mm 534 W/m2
10:40 18.5 °C 13.6 °C 1021.0 hPa SE 6.4 km/h 11.3 km/h 73% 0.0 mm 545 W/m2
10:45 18.6 °C 13.7 °C 1021.0 hPa North 3.2 km/h 9.7 km/h 73% 0.0 mm 559 W/m2
10:50 18.7 °C 13.5 °C 1020.7 hPa Calm   11.3 km/h 72% 0.0 mm 570 W/m2
10:55 19 °C 13.6 °C 1020.7 hPa NE 4.7 km/h 8 km/h 71% 0.0 mm 577 W/m2
11:00 19.1 °C 13.7 °C 1020.7 hPa NE 7.9 km/h 14.5 km/h 71% 0.0 mm 594 W/m2
11:05 19.2 °C 13.8 °C 1020.7 hPa ENE 1.4 km/h 6.4 km/h 71% 0.0 mm 603 W/m2
11:10 19.4 °C 13.3 °C 1020.7 hPa NE 1.4 km/h 14.5 km/h 68% 0.0 mm 613 W/m2
11:15 19.7 °C 13.6 °C 1020.7 hPa East 4.7 km/h 12.9 km/h 68% 0.0 mm 617 W/m2
11:20 19.8 °C 13.5 °C 1020.7 hPa NNE 9.7 km/h 12.9 km/h 67% 0.0 mm 561 W/m2
11:25 19.8 °C 13.5 °C 1020.7 hPa ENE 4.7 km/h 8 km/h 67% 0.0 mm 628 W/m2
11:30 19.9 °C 13.4 °C 1020.7 hPa Calm   4.8 km/h 66% 0.0 mm 640 W/m2
11:35 20.2 °C 13.9 °C 1020.7 hPa Calm   8 km/h 67% 0.0 mm 657 W/m2
11:40 20.4 °C 13.6 °C 1020.7 hPa NNW 4.7 km/h 4.8 km/h 65% 0.0 mm 659 W/m2
11:45 20.6 °C 13.3 °C 1020.7 hPa North 4.7 km/h 12.9 km/h 63% 0.0 mm 673 W/m2
11:50 20.7 °C 13.4 °C 1020.7 hPa East 4.7 km/h 8 km/h 63% 0.0 mm 708 W/m2
11:55 20.8 °C 13.3 °C 1020.3 hPa East 4.7 km/h 9.7 km/h 62% 0.0 mm 693 W/m2
12:00 20.9 °C 13.1 °C 1020.7 hPa SSE 4.7 km/h 16.1 km/h 61% 0.0 mm 737 W/m2
12:05 20.8 °C 13.3 °C 1020.3 hPa SE 1.4 km/h 6.4 km/h 62% 0.0 mm 729 W/m2
12:10 20.9 °C 13.3 °C 1020.3 hPa ESE 3.2 km/h 8 km/h 62% 0.0 mm 127 W/m2
12:15 20.9 °C 13.1 °C 1020.3 hPa Calm   6.4 km/h 61% 0.0 mm 255 W/m2
12:20 20.9 °C 12.8 °C 1020.3 hPa North 6.4 km/h 9.7 km/h 60% 0.0 mm 809 W/m2
12:25 21.2 °C 13.1 °C 1020.3 hPa East 4.7 km/h 11.3 km/h 60% 0.0 mm 789 W/m2
12:30 21.4 °C 13.1 °C 1020.0 hPa ENE 13 km/h 12.9 km/h 59% 0.0 mm 896 W/m2
12:35 21.4 °C 12.8 °C 1020.0 hPa East 3.2 km/h 8 km/h 58% 0.0 mm 171 W/m2
12:40 21.3 °C 12.4 °C 1020.0 hPa NE 7.9 km/h 17.7 km/h 57% 0.0 mm 814 W/m2
12:45 21.3 °C 11.9 °C 1020.0 hPa East 4.7 km/h 14.5 km/h 55% 0.0 mm 814 W/m2
12:50 21.5 °C 12.1 °C 1020.0 hPa ENE 3.2 km/h 6.4 km/h 55% 0.0 mm 729 W/m2
12:55 21.7 °C 12 °C 1020.0 hPa SE 7.9 km/h 14.5 km/h 54% 0.0 mm 788 W/m2
13:00 21.7 °C 12.3 °C 1019.6 hPa East 3.2 km/h 4.8 km/h 55% 0.0 mm 800 W/m2
13:05 21.7 °C 12 °C 1019.6 hPa NW 1.4 km/h 14.5 km/h 54% 0.0 mm 214 W/m2
13:10 21.6 °C 11.9 °C 1019.6 hPa East 6.4 km/h 14.5 km/h 54% 0.0 mm 816 W/m2
13:15 21.6 °C 11.9 °C 1019.6 hPa ENE 4.7 km/h 11.3 km/h 54% 0.0 mm 791 W/m2
13:20 21.8 °C 12.1 °C 1019.6 hPa ENE 11.1 km/h 11.3 km/h 54% 0.0 mm 840 W/m2
13:25 22 °C 12.3 °C 1019.6 hPa East 1.4 km/h 11.3 km/h 54% 0.0 mm 788 W/m2
13:30 22.1 °C 12.1 °C 1019.6 hPa ESE 1.4 km/h 12.9 km/h 53% 0.0 mm 789 W/m2
13:35 22.1 °C 12.1 °C 1019.6 hPa NNE 4.7 km/h 11.3 km/h 53% 0.0 mm 809 W/m2
13:40 22.3 °C 11.4 °C 1019.3 hPa NNW 4.7 km/h 8 km/h 50% 0.0 mm 798 W/m2
13:45 22.6 °C 11.6 °C 1019.3 hPa ENE 4.7 km/h 14.5 km/h 50% 0.0 mm 791 W/m2
13:50 22.7 °C 11.7 °C 1019.3 hPa East 3.2 km/h 9.7 km/h 50% 0.0 mm 814 W/m2
13:55 22.8 °C 11.5 °C 1019.3 hPa ESE 6.4 km/h 11.3 km/h 49% 0.0 mm 802 W/m2
14:00 22.8 °C 11.5 °C 1019.3 hPa East 4.7 km/h 14.5 km/h 49% 0.0 mm 807 W/m2
14:05 22.9 °C 11.9 °C 1019.3 hPa ENE 1.4 km/h 14.5 km/h 50% 0.0 mm 789 W/m2
14:10 22.8 °C 11.5 °C 1019.3 hPa NNE 3.2 km/h 12.9 km/h 49% 0.0 mm 791 W/m2
14:15 22.9 °C 11.6 °C 1019.3 hPa NNE 3.2 km/h 4.8 km/h 49% 0.0 mm 809 W/m2
14:20 23.1 °C 12.1 °C 1019.0 hPa ENE 3.2 km/h 3.2 km/h 50% 0.0 mm 814 W/m2
14:25 23.3 °C 12 °C 1019.0 hPa East 4.7 km/h 9.7 km/h 49% 0.0 mm 858 W/m2
14:30 23.3 °C 12.3 °C 1019.0 hPa East 11.1 km/h 12.9 km/h 50% 0.0 mm 838 W/m2
14:35 23.3 °C 12 °C 1019.0 hPa North 3.2 km/h 8 km/h 49% 0.0 mm 824 W/m2
14:41 23.3 °C 12.3 °C 1019.0 hPa WNW 3.2 km/h 11.3 km/h 50% 0.0 mm 895 W/m2
14:46 23.1 °C 12.4 °C 1019.0 hPa ENE 7.9 km/h 11.3 km/h 51% 0.0 mm 211 W/m2
14:51 22.6 °C 12.8 °C 1019.0 hPa NE 3.2 km/h 12.9 km/h 54% 0.0 mm 214 W/m2
14:56 22.7 °C 12.6 °C 1019.0 hPa NW 7.9 km/h 12.9 km/h 53% 0.0 mm 740 W/m2
15:01 22.7 °C 12.6 °C 1019.0 hPa WNW 1.4 km/h 4.8 km/h 53% 0.0 mm 255 W/m2
15:06 22.8 °C 13 °C 1019.0 hPa NNW 4.7 km/h 8 km/h 54% 0.0 mm 819 W/m2
15:11 22.9 °C 12.8 °C 1019.0 hPa ESE 6.4 km/h 11.3 km/h 53% 0.0 mm 754 W/m2
15:16 23 °C 12.6 °C 1018.6 hPa ENE 3.2 km/h 6.4 km/h 52% 0.0 mm 737 W/m2
15:21 23.2 °C 13.7 °C 1018.6 hPa NNW 1.4 km/h 8 km/h 55% 0.0 mm 800 W/m2
15:26 23.4 °C 12.7 °C 1018.6 hPa West 4.7 km/h 9.7 km/h 51% 0.0 mm 399 W/m2
15:31 23.3 °C 13.2 °C 1018.6 hPa North 4.7 km/h 8 km/h 53% 0.0 mm 380 W/m2
15:36 23.2 °C 12.8 °C 1018.6 hPa NNE 1.4 km/h 4.8 km/h 52% 0.0 mm 251 W/m2
15:41 23.1 °C 12.4 °C 1018.6 hPa West 1.4 km/h 11.3 km/h 51% 0.0 mm 784 W/m2
15:46 23.1 °C 13 °C 1018.6 hPa ENE 7.9 km/h 8 km/h 53% 0.0 mm 735 W/m2
15:51 23.2 °C 13.1 °C 1018.3 hPa NE 4.7 km/h 6.4 km/h 53% 0.0 mm 758 W/m2
15:56 23.3 °C 12.9 °C 1018.3 hPa ESE 4.7 km/h 6.4 km/h 52% 0.0 mm 717 W/m2
16:01 23.2 °C 13.1 °C 1018.3 hPa ENE 1.4 km/h 8 km/h 53% 0.0 mm 294 W/m2
16:06 23.1 °C 12.4 °C 1018.3 hPa East 3.2 km/h 3.2 km/h 51% 0.0 mm 422 W/m2
16:11 23.1 °C 13 °C 1018.0 hPa West 1.4 km/h 4.8 km/h 53% 0.0 mm 666 W/m2
16:16 23.3 °C 12.9 °C 1018.0 hPa NNW 1.4 km/h 8 km/h 52% 0.0 mm 631 W/m2
16:21 23.4 °C 12.7 °C 1018.0 hPa NNW 1.4 km/h 6.4 km/h 51% 0.0 mm 613 W/m2
16:26 23.6 °C 12.6 °C 1018.0 hPa WNW 6.4 km/h 11.3 km/h 50% 0.0 mm 624 W/m2
16:31 23.5 °C 12.8 °C 1018.0 hPa ESE 1.4 km/h 11.3 km/h 51% 0.0 mm 563 W/m2
16:36 23.5 °C 13.1 °C 1018.0 hPa NNW 4.7 km/h 4.8 km/h 52% 0.0 mm 628 W/m2
16:41 23.6 °C 12.9 °C 1017.6 hPa NNE 1.4 km/h 8 km/h 51% 0.0 mm 592 W/m2
16:46 23.4 °C 13 °C 1017.6 hPa NNW 3.2 km/h 9.7 km/h 52% 0.0 mm 592 W/m2
16:51 23.4 °C 12.7 °C 1017.6 hPa NNE 1.4 km/h 4.8 km/h 51% 0.0 mm 571 W/m2
16:56 23.4 °C 12.7 °C 1017.6 hPa Calm   3.2 km/h 51% 0.0 mm 554 W/m2
17:01 23.6 °C 12.9 °C 1017.6 hPa NNW 4.7 km/h 11.3 km/h 51% 0.0 mm 540 W/m2
17:06 23.7 °C 13 °C 1017.6 hPa North 1.4 km/h 4.8 km/h 51% 0.0 mm 529 W/m2
17:11 23.8 °C 13.1 °C 1017.6 hPa WNW 3.2 km/h 4.8 km/h 51% 0.0 mm 533 W/m2
17:16 23.9 °C 13.1 °C 1017.6 hPa NNW 1.4 km/h 12.9 km/h 51% 0.0 mm 155 W/m2
17:21 23.7 °C 13 °C 1017.6 hPa Calm   3.2 km/h 51% 0.0 mm 120 W/m2
17:26 23.5 °C 12.8 °C 1017.6 hPa East 7.9 km/h 14.5 km/h 51% 0.0 mm 441 W/m2
17:31 23.3 °C 12.6 °C 1017.6 hPa NE 3.2 km/h 9.7 km/h 51% 0.0 mm 396 W/m2
17:36 23.3 °C 12.6 °C 1017.6 hPa ENE 3.2 km/h 6.4 km/h 51% 0.0 mm 394 W/m2
17:41 23.3 °C 12.6 °C 1017.6 hPa SW 1.4 km/h 6.4 km/h 51% 0.0 mm 429 W/m2
17:46 23.5 °C 13.1 °C 1017.3 hPa WNW 4.7 km/h 4.8 km/h 52% 0.0 mm 399 W/m2
17:51 23.6 °C 12.9 °C 1017.6 hPa SW 3.2 km/h 9.7 km/h 51% 0.0 mm 380 W/m2
17:56 23.4 °C 12.4 °C 1017.3 hPa WNW 6.4 km/h 8 km/h 50% 0.0 mm 385 W/m2
18:01 23.4 °C 12.4 °C 1017.3 hPa NNW 3.2 km/h 9.7 km/h 50% 0.0 mm 357 W/m2
18:06 23.3 °C 12.6 °C 1017.3 hPa ENE 1.4 km/h 6.4 km/h 51% 0.0 mm 357 W/m2
18:11 23.3 °C 12.9 °C 1017.3 hPa Calm   4.8 km/h 52% 0.0 mm 329 W/m2
18:16 23.4 °C 12.7 °C 1017.3 hPa ENE 1.4 km/h 6.4 km/h 51% 0.0 mm 315 W/m2
18:21 23.4 °C 12.7 °C 1017.3 hPa NW 4.7 km/h 9.7 km/h 51% 0.0 mm 309 W/m2
18:26 23.4 °C 12.4 °C 1017.3 hPa NW 1.4 km/h 6.4 km/h 50% 0.0 mm 299 W/m2
18:31 23.5 °C 12.2 °C 1016.9 hPa Calm   9.7 km/h 49% 0.0 mm 287 W/m2
18:36 23.4 °C 12.1 °C 1016.9 hPa NW 6.4 km/h 9.7 km/h 49% 0.0 mm 271 W/m2
18:41 23.3 °C 12.3 °C 1016.9 hPa East 7.9 km/h 8 km/h 50% 0.0 mm 258 W/m2
18:46 23.3 °C 12 °C 1016.9 hPa NE 3.2 km/h 9.7 km/h 49% 0.0 mm 243 W/m2
18:51 23.2 °C 12.2 °C 1016.9 hPa NW 3.2 km/h 3.2 km/h 50% 0.0 mm 232 W/m2
18:56 23.2 °C 11.9 °C 1016.9 hPa Calm   9.7 km/h 49% 0.0 mm 216 W/m2
19:01 23.2 °C 12.2 °C 1016.9 hPa Calm   1.6 km/h 50% 0.0 mm 202 W/m2
19:06 23.1 °C 12.4 °C 1016.9 hPa NW 1.4 km/h 9.7 km/h 51% 0.0 mm 185 W/m2
19:11 23 °C 12.3 °C 1016.9 hPa West 3.2 km/h 6.4 km/h 51% 0.0 mm 162 W/m2
19:16 22.7 °C 12 °C 1016.6 hPa NNW 1.4 km/h 4.8 km/h 51% 0.0 mm 148 W/m2
19:21 22.6 °C 11.9 °C 1016.9 hPa ENE 1.4 km/h 3.2 km/h 51% 0.0 mm 127 W/m2
19:26 22.6 °C 11.6 °C 1016.9 hPa SSE 1.4 km/h 3.2 km/h 50% 0.0 mm 111 W/m2
19:31 22.5 °C 11.6 °C 1016.9 hPa NE 4.7 km/h 4.8 km/h 50% 0.0 mm 98 W/m2
19:36 22.4 °C 11.8 °C 1016.6 hPa NE 3.2 km/h 4.8 km/h 51% 0.0 mm 77 W/m2
19:41 22.3 °C 11.7 °C 1016.6 hPa ENE 1.4 km/h 3.2 km/h 51% 0.0 mm 67 W/m2
19:46 22.3 °C 12.8 °C 1016.9 hPa East 1.4 km/h 3.2 km/h 55% 0.0 mm 56 W/m2
19:51 22.1 °C 12.9 °C 1016.9 hPa East 1.4 km/h 3.2 km/h 56% 0.0 mm 47 W/m2
19:56 21.8 °C 13.4 °C 1016.9 hPa ESE 1.4 km/h 1.6 km/h 59% 0.0 mm 33 W/m2
20:01 21.4 °C 13.1 °C 1016.6 hPa ESE 1.4 km/h 1.6 km/h 59% 0.0 mm 19 W/m2
20:06 21.1 °C 13 °C 1016.6 hPa ESE 1.4 km/h 1.6 km/h 60% 0.0 mm 14 W/m2
20:11 20.7 °C 13.2 °C 1016.6 hPa Calm   3.2 km/h 62% 0.0 mm 12 W/m2
20:16 20.2 °C 12.9 °C 1016.6 hPa Calm   3.2 km/h 63% 0.0 mm 11 W/m2
20:22 19.8 °C 12.8 °C 1016.6 hPa Calm     64% 0.0 mm 7 W/m2
20:27 19.4 °C 12.7 °C 1016.6 hPa ESE 1.4 km/h 3.2 km/h 65% 0.0 mm 5 W/m2
20:32 19.2 °C 12.7 °C 1016.6 hPa ESE 1.4 km/h 3.2 km/h 66% 0.0 mm 5 W/m2
20:37 18.8 °C 12.5 °C 1016.6 hPa ESE 1.4 km/h 3.2 km/h 67% 0.0 mm 0 W/m2
20:42 18.6 °C 12.6 °C 1016.6 hPa Calm   1.6 km/h 68% 0.0 mm 0 W/m2
20:47 18.3 °C 12.3 °C 1016.6 hPa Calm     68% 0.0 mm 0 W/m2
20:52 18 °C 12.2 °C 1016.6 hPa Calm     69% 0.0 mm 0 W/m2
20:57 17.8 °C 12.3 °C 1016.6 hPa Calm     70% 0.0 mm 0 W/m2
21:02 17.6 °C 12.1 °C 1016.6 hPa Calm     70% 0.0 mm 0 W/m2
21:07 17.4 °C 12.1 °C 1016.6 hPa Calm     71% 0.0 mm 0 W/m2
21:12 17.2 °C 12.1 °C 1016.6 hPa Calm     72% 0.0 mm 0 W/m2
21:17 17 °C 11.9 °C 1016.6 hPa Calm   1.6 km/h 72% 0.0 mm 0 W/m2
21:22 16.9 °C 12 °C 1016.6 hPa Calm     73% 0.0 mm 0 W/m2
21:27 16.7 °C 11.8 °C 1016.6 hPa Calm   1.6 km/h 73% 0.0 mm 0 W/m2
21:32 16.6 °C 11.9 °C 1016.6 hPa Calm     74% 0.0 mm 0 W/m2
21:37 16.5 °C 11.8 °C 1016.6 hPa Calm     74% 0.0 mm 0 W/m2
21:42 16.4 °C 12 °C 1016.9 hPa Calm     75% 0.0 mm 0 W/m2
21:47 16.2 °C 11.8 °C 1016.6 hPa Calm     75% 0.0 mm 0 W/m2
21:52 16.1 °C 11.9 °C 1016.6 hPa Calm     76% 0.0 mm 0 W/m2
21:57 15.9 °C 11.7 °C 1016.6 hPa Calm     76% 0.0 mm 0 W/m2
22:02 15.8 °C 11.8 °C 1016.6 hPa Calm     77% 0.0 mm 0 W/m2
22:07 15.7 °C 11.7 °C 1016.6 hPa Calm     77% 0.0 mm 0 W/m2
22:12 15.6 °C 11.8 °C 1016.6 hPa Calm     78% 0.0 mm 0 W/m2
22:17 15.5 °C 11.7 °C 1016.6 hPa Calm   1.6 km/h 78% 0.0 mm 0 W/m2
22:22 15.4 °C 11.6 °C 1016.6 hPa Calm     78% 0.0 mm 0 W/m2
22:27 15.3 °C 11.7 °C 1016.6 hPa Calm   1.6 km/h 79% 0.0 mm 0 W/m2
22:32 15.2 °C 11.6 °C 1016.6 hPa Calm   1.6 km/h 79% 0.0 mm 0 W/m2
22:37 15.2 °C 11.6 °C 1016.9 hPa West 1.4 km/h 3.2 km/h 79% 0.0 mm 0 W/m2
22:42 15.1 °C 11.5 °C 1016.6 hPa Calm   1.6 km/h 79% 0.0 mm 0 W/m2
22:47 15.2 °C 11.6 °C 1016.6 hPa Calm   3.2 km/h 79% 0.0 mm 0 W/m2
22:52 15.3 °C 11.5 °C 1016.6 hPa West 1.4 km/h 3.2 km/h 78% 0.0 mm 0 W/m2
22:57 15.4 °C 11.4 °C 1016.6 hPa West 1.4 km/h 4.8 km/h 77% 0.0 mm 0 W/m2
23:02 15.7 °C 11.5 °C 1016.6 hPa West 3.2 km/h 6.4 km/h 76% 0.0 mm 0 W/m2
23:07 16 °C 11.8 °C 1016.6 hPa WSW 1.4 km/h 4.8 km/h 76% 0.0 mm 0 W/m2
23:12 16.2 °C 12 °C 1016.6 hPa WSW 3.2 km/h 6.4 km/h 76% 0.0 mm 0 W/m2
23:17 16.3 °C 11.9 °C 1016.6 hPa WSW 4.7 km/h 8 km/h 75% 0.0 mm 0 W/m2
23:22 16.4 °C 12 °C 1016.6 hPa WSW 1.4 km/h 6.4 km/h 75% 0.0 mm 0 W/m2
23:27 16.5 °C 12.1 °C 1016.3 hPa WSW 4.7 km/h 6.4 km/h 75% 0.0 mm 0 W/m2
23:32 16.5 °C 12.1 °C 1016.3 hPa West 4.7 km/h 4.8 km/h 75% 0.0 mm 0 W/m2
23:37 16.5 °C 12.1 °C 1016.3 hPa WSW 6.4 km/h 6.4 km/h 75% 0.0 mm 0 W/m2
23:42 16.5 °C 12.1 °C 1016.3 hPa West 1.4 km/h 8 km/h 75% 0.0 mm 0 W/m2
23:47 16.6 °C 12.1 °C 1016.3 hPa West 1.4 km/h 3.2 km/h 75% 0.0 mm 0 W/m2
23:52 16.5 °C 12.1 °C 1016.3 hPa West 1.4 km/h 6.4 km/h 75% 0.0 mm 0 W/m2
23:57 16.4 °C 12 °C 1016.3 hPa Calm   3.2 km/h 75% 0.0 mm 0 W/m2
Juneau County Weather
Compliments of Weather Underground - 4 mb